createdAt,value
2023-04-17T00:00:08.522Z,89.15
2023-04-17T00:01:08.539Z,89.01
2023-04-17T00:02:08.508Z,89.11
2023-04-17T00:03:08.685Z,88.90
2023-04-17T00:04:08.591Z,88.90
2023-04-17T00:05:08.539Z,89.01
2023-04-17T00:06:08.454Z,88.90
2023-04-17T00:07:08.461Z,88.90
2023-04-17T00:08:08.437Z,89.01
2023-04-17T00:09:08.448Z,89.01
2023-04-17T00:10:08.388Z,88.90
2023-04-17T00:11:09.279Z,89.01
2023-04-17T00:12:08.387Z,88.90
2023-04-17T00:13:08.392Z,88.84
2023-04-17T00:14:08.342Z,88.84
2023-04-17T00:15:08.319Z,88.84
2023-04-17T00:16:08.347Z,88.84
2023-04-17T00:17:08.289Z,88.80
2023-04-17T00:18:08.301Z,88.84
2023-04-17T00:19:08.273Z,88.74
2023-04-17T00:20:08.258Z,88.84
2023-04-17T00:21:08.298Z,88.95
2023-04-17T00:22:08.226Z,88.95
2023-04-17T00:23:08.222Z,88.95
2023-04-17T00:24:08.212Z,88.84
2023-04-17T00:25:08.186Z,88.80
2023-04-17T00:26:08.167Z,88.80
2023-04-17T00:27:08.152Z,88.80
2023-04-17T00:28:08.160Z,88.80
2023-04-17T00:29:08.140Z,88.80
2023-04-17T00:30:08.120Z,88.80
2023-04-17T00:31:08.093Z,88.90
2023-04-17T00:32:08.320Z,89.01
2023-04-17T00:33:08.221Z,88.90
2023-04-17T00:34:08.066Z,88.90
2023-04-17T00:35:08.047Z,89.01
2023-04-17T00:36:08.044Z,89.01
2023-04-17T00:37:08.047Z,88.90
2023-04-17T00:38:08.034Z,88.80
2023-04-17T00:39:08.001Z,88.90
2023-04-17T00:40:08.010Z,89.01
2023-04-17T00:41:07.963Z,89.11
2023-04-17T00:42:07.952Z,89.31
2023-04-17T00:43:07.960Z,89.52
2023-04-17T00:44:07.934Z,89.72
2023-04-17T00:45:07.909Z,89.62
2023-04-17T00:46:07.963Z,89.62
2023-04-17T00:47:07.891Z,89.62
2023-04-17T00:48:07.960Z,89.62
2023-04-17T00:49:07.854Z,89.72
2023-04-17T00:50:07.851Z,89.72
2023-04-17T00:51:07.830Z,89.72
2023-04-17T00:52:07.821Z,89.62
2023-04-17T00:53:07.813Z,89.62
2023-04-17T00:54:07.784Z,89.52
2023-04-17T00:55:07.779Z,89.52
2023-04-17T00:56:07.817Z,89.52
2023-04-17T00:57:07.758Z,89.52
2023-04-17T00:58:07.759Z,89.42
2023-04-17T00:59:07.717Z,89.42
2023-04-17T01:00:07.711Z,89.52
2023-04-17T01:01:07.756Z,89.62
2023-04-17T01:02:07.751Z,89.62
2023-04-17T01:03:07.819Z,89.62
2023-04-17T01:04:07.792Z,89.72
2023-04-17T01:05:07.652Z,89.76
2023-04-17T01:06:07.663Z,89.87
2023-04-17T01:07:07.629Z,89.97
2023-04-17T01:08:07.630Z,90.08
2023-04-17T01:09:07.586Z,90.08
2023-04-17T01:10:07.565Z,90.18
2023-04-17T01:11:07.563Z,90.28
2023-04-17T01:12:07.555Z,90.38
2023-04-17T01:13:07.543Z,90.38
2023-04-17T01:14:07.522Z,90.38
2023-04-17T01:15:07.513Z,90.28
2023-04-17T01:16:07.488Z,90.28
2023-04-17T01:17:07.520Z,90.28
2023-04-17T01:18:07.572Z,90.38
2023-04-17T01:19:07.445Z,90.38
2023-04-17T01:20:07.436Z,90.38
2023-04-17T01:21:07.411Z,90.38
2023-04-17T01:22:07.409Z,90.38
2023-04-17T01:23:07.385Z,90.38
2023-04-17T01:24:07.377Z,90.28
2023-04-17T01:25:07.352Z,90.38
2023-04-17T01:26:07.352Z,90.38
2023-04-17T01:27:07.331Z,90.38
2023-04-17T01:28:07.327Z,90.38
2023-04-17T01:29:07.321Z,90.28
2023-04-17T01:30:07.294Z,90.28
2023-04-17T01:31:07.307Z,90.28
2023-04-17T01:32:07.264Z,90.18
2023-04-17T01:33:07.292Z,90.18
2023-04-17T01:34:07.256Z,90.08
2023-04-17T01:35:07.225Z,89.97
2023-04-17T01:36:07.222Z,89.87
2023-04-17T01:37:07.190Z,89.76
2023-04-17T01:38:07.180Z,89.66
2023-04-17T01:39:07.183Z,89.56
2023-04-17T01:40:07.166Z,89.56
2023-04-17T01:41:07.147Z,89.56
2023-04-17T01:42:07.131Z,89.56
2023-04-17T01:43:07.122Z,89.56
2023-04-17T01:44:09.152Z,89.56
2023-04-17T01:45:07.093Z,89.46
2023-04-17T01:46:07.122Z,89.46
2023-04-17T01:47:07.072Z,89.56
2023-04-17T01:48:07.057Z,89.66
2023-04-17T01:49:07.038Z,89.66
2023-04-17T01:50:07.024Z,89.81
2023-04-17T01:51:07.015Z,89.76
2023-04-17T01:52:06.996Z,89.87
2023-04-17T01:53:06.973Z,89.76
2023-04-17T01:54:07.007Z,89.81
2023-04-17T01:55:06.944Z,89.87
2023-04-17T01:56:06.951Z,89.76
2023-04-17T01:57:06.929Z,89.76
2023-04-17T01:58:06.916Z,89.76
2023-04-17T01:59:06.937Z,89.76
2023-04-17T02:00:06.884Z,89.76
2023-04-17T02:01:06.864Z,89.76
2023-04-17T02:02:07.049Z,89.91
2023-04-17T02:03:06.964Z,89.91
2023-04-17T02:04:06.952Z,90.01
2023-04-17T02:05:06.824Z,90.01
2023-04-17T02:06:06.789Z,90.01
2023-04-17T02:07:06.784Z,90.01
2023-04-17T02:08:06.781Z,90.01
2023-04-17T02:09:06.789Z,90.01
2023-04-17T02:10:06.741Z,90.01
2023-04-17T02:11:06.734Z,90.12
2023-04-17T02:12:06.713Z,90.12
2023-04-17T02:13:06.714Z,90.22
2023-04-17T02:14:06.704Z,90.12
2023-04-17T02:15:06.673Z,90.12
2023-04-17T02:16:06.777Z,90.08
2023-04-17T02:17:06.660Z,90.12
2023-04-17T02:18:06.672Z,90.12
2023-04-17T02:19:06.642Z,90.08
2023-04-17T02:20:06.604Z,90.08
2023-04-17T02:21:06.594Z,90.08
2023-04-17T02:22:06.574Z,89.97
2023-04-17T02:23:06.571Z,89.97
2023-04-17T02:24:06.562Z,89.87
2023-04-17T02:25:06.542Z,89.76
2023-04-17T02:26:06.522Z,89.76
2023-04-17T02:27:06.509Z,89.76
2023-04-17T02:28:06.495Z,89.76
2023-04-17T02:29:06.495Z,89.76
2023-04-17T02:30:06.465Z,89.87
2023-04-17T02:31:06.504Z,89.87
2023-04-17T02:32:06.447Z,89.91
2023-04-17T02:33:06.480Z,89.87
2023-04-17T02:34:06.432Z,89.87
2023-04-17T02:35:06.412Z,89.76
2023-04-17T02:36:06.380Z,89.76
2023-04-17T02:37:06.388Z,89.76
2023-04-17T02:38:06.360Z,89.76
2023-04-17T02:39:06.378Z,89.76
2023-04-17T02:40:06.334Z,89.66
2023-04-17T02:41:06.356Z,89.66
2023-04-17T02:42:06.295Z,89.66
2023-04-17T02:43:06.303Z,89.66
2023-04-17T02:44:06.319Z,89.56
2023-04-17T02:45:06.278Z,89.56
2023-04-17T02:46:06.247Z,89.46
2023-04-17T02:47:06.243Z,89.46
2023-04-17T02:48:06.396Z,89.46
2023-04-17T02:49:06.246Z,89.46
2023-04-17T02:50:06.201Z,89.36
2023-04-17T02:51:06.195Z,89.36
2023-04-17T02:52:06.166Z,89.46
2023-04-17T02:53:06.161Z,89.56
2023-04-17T02:54:06.222Z,89.70
2023-04-17T02:55:06.130Z,89.81
2023-04-17T02:56:06.111Z,89.76
2023-04-17T02:57:06.105Z,89.87
2023-04-17T02:58:06.077Z,89.97
2023-04-17T02:59:06.102Z,89.97
2023-04-17T03:00:06.062Z,89.87
2023-04-17T03:01:06.262Z,89.87
2023-04-17T03:02:06.145Z,89.97
2023-04-17T03:03:06.160Z,89.97
2023-04-17T03:04:06.149Z,89.97
2023-04-17T03:05:05.991Z,89.97
2023-04-17T03:06:05.979Z,90.08
2023-04-17T03:07:05.961Z,90.08
2023-04-17T03:08:05.952Z,89.97
2023-04-17T03:09:05.959Z,89.76
2023-04-17T03:10:06.031Z,89.76
2023-04-17T03:11:05.919Z,89.87
2023-04-17T03:12:05.896Z,89.97
2023-04-17T03:13:05.877Z,89.97
2023-04-17T03:14:05.891Z,89.97
2023-04-17T03:15:07.569Z,89.97
2023-04-17T03:16:05.895Z,89.87
2023-04-17T03:17:05.836Z,89.66
2023-04-17T03:18:05.893Z,89.56
2023-04-17T03:19:05.816Z,89.66
2023-04-17T03:20:05.787Z,89.66
2023-04-17T03:21:05.776Z,89.66
2023-04-17T03:22:05.773Z,89.66
2023-04-17T03:23:05.751Z,89.66
2023-04-17T03:24:05.750Z,89.66
2023-04-17T03:25:05.722Z,89.56
2023-04-17T03:26:05.699Z,89.66
2023-04-17T03:27:05.706Z,89.66
2023-04-17T03:28:05.671Z,89.76
2023-04-17T03:29:05.682Z,89.66
2023-04-17T03:30:05.639Z,89.66
2023-04-17T03:31:05.632Z,89.66
2023-04-17T03:32:05.700Z,89.76
2023-04-17T03:33:05.744Z,89.87
2023-04-17T03:34:05.622Z,89.97
2023-04-17T03:35:05.589Z,90.08
2023-04-17T03:36:05.562Z,90.14
2023-04-17T03:37:05.579Z,90.28
2023-04-17T03:38:05.541Z,90.18
2023-04-17T03:39:05.573Z,90.08
2023-04-17T03:40:05.527Z,90.08
2023-04-17T03:41:05.504Z,89.93
2023-04-17T03:42:05.486Z,89.97
2023-04-17T03:43:05.484Z,89.87
2023-04-17T03:44:05.472Z,89.87
2023-04-17T03:45:05.452Z,89.97
2023-04-17T03:46:05.473Z,90.08
2023-04-17T03:47:05.441Z,90.18
2023-04-17T03:48:05.416Z,90.38
2023-04-17T03:49:05.407Z,90.48
2023-04-17T03:50:05.422Z,90.59
2023-04-17T03:51:05.370Z,90.69
2023-04-17T03:52:05.356Z,90.80
2023-04-17T03:53:05.334Z,90.89
2023-04-17T03:54:05.346Z,90.69
2023-04-17T03:55:05.308Z,90.59
2023-04-17T03:56:05.285Z,90.38
2023-04-17T03:57:05.313Z,90.28
2023-04-17T03:58:05.260Z,90.28
2023-04-17T03:59:05.272Z,90.28
2023-04-17T04:00:05.224Z,90.08
2023-04-17T04:01:05.222Z,89.97
2023-04-17T04:02:05.291Z,89.87
2023-04-17T04:03:05.492Z,89.66
2023-04-17T04:04:05.363Z,89.46
2023-04-17T04:05:05.219Z,89.66
2023-04-17T04:06:05.147Z,89.87
2023-04-17T04:07:05.158Z,89.97
2023-04-17T04:08:05.123Z,90.12
2023-04-17T04:09:05.300Z,90.22
2023-04-17T04:10:05.096Z,90.22
2023-04-17T04:11:05.097Z,90.32
2023-04-17T04:12:05.061Z,90.32
2023-04-17T04:13:05.054Z,90.32
2023-04-17T04:14:05.055Z,90.42
2023-04-17T04:15:05.028Z,90.53
2023-04-17T04:16:05.055Z,90.73
2023-04-17T04:17:05.003Z,90.83
2023-04-17T04:18:05.011Z,90.73
2023-04-17T04:19:04.985Z,90.73
2023-04-17T04:20:04.955Z,90.59
2023-04-17T04:21:04.937Z,90.59
2023-04-17T04:22:06.813Z,90.59
2023-04-17T04:23:04.914Z,90.48
2023-04-17T04:24:04.904Z,90.28
2023-04-17T04:25:04.885Z,90.28
2023-04-17T04:26:04.870Z,90.38
2023-04-17T04:27:04.863Z,90.38
2023-04-17T04:28:04.845Z,90.38
2023-04-17T04:29:04.866Z,90.38
2023-04-17T04:30:04.828Z,90.48
2023-04-17T04:31:04.826Z,90.48
2023-04-17T04:32:04.787Z,90.38
2023-04-17T04:33:04.811Z,90.28
2023-04-17T04:34:04.822Z,90.18
2023-04-17T04:35:04.746Z,90.18
2023-04-17T04:36:04.724Z,90.08
2023-04-17T04:37:04.733Z,90.08
2023-04-17T04:38:04.731Z,90.08
2023-04-17T04:39:04.704Z,90.08
2023-04-17T04:40:04.672Z,90.18
2023-04-17T04:41:04.668Z,90.18
2023-04-17T04:42:04.649Z,90.38
2023-04-17T04:43:04.647Z,90.38
2023-04-17T04:44:04.648Z,90.38
2023-04-17T04:45:04.639Z,90.28
2023-04-17T04:46:04.601Z,90.18
2023-04-17T04:47:04.691Z,90.18
2023-04-17T04:48:04.600Z,90.18
2023-04-17T04:49:04.574Z,90.18
2023-04-17T04:50:04.533Z,90.08
2023-04-17T04:51:04.525Z,90.01
2023-04-17T04:52:04.510Z,90.12
2023-04-17T04:53:04.506Z,90.22
2023-04-17T04:54:04.512Z,90.32
2023-04-17T04:55:04.489Z,90.42
2023-04-17T04:56:04.449Z,90.63
2023-04-17T04:57:04.472Z,90.80
2023-04-17T04:58:04.423Z,90.80
2023-04-17T04:59:04.418Z,90.80
2023-04-17T05:01:14.049Z,90.48
2023-04-17T05:02:14.029Z,90.38
2023-04-17T05:03:14.194Z,90.38
2023-04-17T05:04:14.129Z,90.48
2023-04-17T05:05:13.952Z,90.59
2023-04-17T05:06:13.921Z,90.59
2023-04-17T05:07:13.913Z,90.59
2023-04-17T05:08:13.873Z,90.69
2023-04-17T05:09:16.661Z,90.69
2023-04-17T05:10:13.861Z,90.69
2023-04-17T05:11:13.836Z,90.48
2023-04-17T05:12:13.815Z,90.38
2023-04-17T05:13:13.821Z,90.18
2023-04-17T05:14:13.792Z,90.08
2023-04-17T05:15:13.805Z,90.08
2023-04-17T05:16:13.838Z,90.18
2023-04-17T05:17:13.752Z,90.18
2023-04-17T05:18:13.768Z,90.18
2023-04-17T05:19:13.955Z,90.08
2023-04-17T05:20:13.747Z,90.59
2023-04-17T05:21:13.714Z,96.72
2023-04-17T05:32:16.051Z,79.50
2023-04-17T05:33:16.007Z,79.57
2023-04-17T05:34:16.013Z,79.06
2023-04-17T05:35:16.005Z,78.35
2023-04-17T05:36:15.989Z,78.05
2023-04-17T05:37:15.962Z,75.20
2023-04-17T05:38:15.984Z,73.13
2023-04-17T05:39:15.928Z,74.21
2023-04-17T05:40:15.980Z,75.71
2023-04-17T05:41:15.998Z,76.97
2023-04-17T05:42:15.886Z,78.17
2023-04-17T05:43:15.889Z,79.33
2023-04-17T05:44:15.873Z,80.49
2023-04-17T05:45:15.869Z,81.45
2023-04-17T05:46:15.850Z,82.51
2023-04-17T05:47:15.821Z,83.47
2023-04-17T05:48:15.832Z,84.09
2023-04-17T05:49:15.835Z,84.74
2023-04-17T05:50:15.806Z,84.95
2023-04-17T05:51:15.774Z,85.15
2023-04-17T05:52:15.775Z,85.71
2023-04-17T05:53:15.742Z,86.01
2023-04-17T05:54:15.759Z,86.11
2023-04-17T05:55:15.776Z,86.42
2023-04-17T05:56:15.740Z,86.63
2023-04-17T05:57:15.688Z,86.73
2023-04-17T05:58:22.972Z,86.93
2023-04-17T05:59:16.679Z,87.04
2023-04-17T06:00:15.669Z,86.93
2023-04-17T06:01:15.631Z,86.93
2023-04-17T06:02:15.688Z,86.93
2023-04-17T06:03:18.315Z,87.04
2023-04-17T06:04:18.086Z,87.14
2023-04-17T06:05:15.683Z,87.24
2023-04-17T06:06:15.581Z,87.34
2023-04-17T06:07:15.560Z,87.34
2023-04-17T06:08:15.592Z,87.45
2023-04-17T06:09:15.576Z,87.24
2023-04-17T06:10:15.591Z,86.83
2023-04-17T06:11:15.497Z,86.63
2023-04-17T06:12:15.532Z,86.22
2023-04-17T06:13:15.591Z,86.11
2023-04-17T06:14:15.530Z,86.11
2023-04-17T06:15:15.543Z,86.11
2023-04-17T06:16:15.528Z,86.11
2023-04-17T06:17:15.664Z,86.32
2023-04-17T06:18:15.404Z,86.42
2023-04-17T06:19:15.389Z,86.42
2023-04-17T06:20:15.406Z,86.32
2023-04-17T06:21:15.368Z,86.32
2023-04-17T06:22:15.368Z,86.11
2023-04-17T06:23:15.332Z,85.87
2023-04-17T06:24:15.329Z,85.97
2023-04-17T06:25:15.316Z,85.87
2023-04-17T06:26:15.297Z,85.87
2023-04-17T06:27:15.279Z,85.87
2023-04-17T06:28:15.273Z,86.07
2023-04-17T06:29:15.253Z,85.97
2023-04-17T06:30:15.253Z,85.97
2023-04-17T06:31:15.266Z,85.77
2023-04-17T06:32:15.218Z,85.77
2023-04-17T06:33:15.194Z,85.83
2023-04-17T06:34:15.190Z,85.93
2023-04-17T06:35:15.194Z,85.83
2023-04-17T06:36:15.156Z,85.63
2023-04-17T06:37:15.148Z,85.11
2023-04-17T06:38:15.137Z,85.01
2023-04-17T06:39:15.115Z,85.01
2023-04-17T06:40:15.106Z,84.91
2023-04-17T06:41:15.089Z,85.01
2023-04-17T06:42:15.082Z,85.01
2023-04-17T06:43:15.061Z,85.11
2023-04-17T06:44:15.057Z,85.22
2023-04-17T06:45:15.053Z,85.22
2023-04-17T06:46:15.097Z,85.17
2023-04-17T06:47:15.009Z,85.17
2023-04-17T06:48:14.998Z,84.97
2023-04-17T06:49:15.134Z,84.77
2023-04-17T06:50:14.993Z,84.66
2023-04-17T06:51:14.956Z,84.66
2023-04-17T06:52:14.937Z,84.42
2023-04-17T06:53:14.921Z,84.11
2023-04-17T06:54:14.920Z,83.70
2023-04-17T06:55:14.910Z,83.09
2023-04-17T06:56:14.903Z,82.98
2023-04-17T06:57:14.868Z,83.09
2023-04-17T06:58:14.865Z,83.15
2023-04-17T06:59:14.836Z,83.15
2023-04-17T07:00:14.852Z,83.25
2023-04-17T07:01:14.848Z,83.15
2023-04-17T07:02:14.948Z,82.64
2023-04-17T07:03:14.966Z,82.34
2023-04-17T07:04:14.869Z,81.10
2023-04-17T07:05:14.779Z,80.60
2023-04-17T07:06:14.798Z,81.31
2023-04-17T07:07:14.735Z,81.72
2023-04-17T07:08:14.728Z,81.72
2023-04-17T07:09:14.938Z,81.41
2023-04-17T07:10:14.714Z,81.41
2023-04-17T07:11:14.737Z,81.51
2023-04-17T07:12:14.668Z,81.41
2023-04-17T07:13:14.656Z,81.31
2023-04-17T07:14:14.648Z,80.60
2023-04-17T07:15:14.666Z,79.98
2023-04-17T07:16:14.627Z,80.08
2023-04-17T07:17:14.747Z,79.88
2023-04-17T07:18:14.584Z,80.08
2023-04-17T07:19:14.808Z,78.65
2023-04-17T07:20:14.569Z,78.96
2023-04-17T07:21:14.562Z,79.02
2023-04-17T07:22:14.543Z,79.02
2023-04-17T07:23:14.513Z,79.23
2023-04-17T07:24:14.524Z,79.43
2023-04-17T07:25:14.501Z,79.53
2023-04-17T07:26:14.500Z,79.64
2023-04-17T07:27:14.471Z,79.64
2023-04-17T07:28:14.473Z,79.23
2023-04-17T07:29:14.732Z,78.82
2023-04-17T07:30:14.432Z,78.31
2023-04-17T07:31:14.543Z,78.72
2023-04-17T07:32:14.401Z,78.61
2023-04-17T07:33:14.392Z,77.80
2023-04-17T07:34:14.367Z,76.98
2023-04-17T07:35:14.356Z,76.88
2023-04-17T07:36:14.368Z,76.98
2023-04-17T07:37:14.320Z,76.47
2023-04-17T07:38:14.307Z,77.08
2023-04-17T07:39:14.419Z,77.90
2023-04-17T07:40:14.282Z,78.20
2023-04-17T07:41:14.296Z,78.00
2023-04-17T07:42:14.269Z,77.90
2023-04-17T07:43:14.243Z,77.49
2023-04-17T07:44:14.245Z,77.66
2023-04-17T07:45:14.221Z,77.97
2023-04-17T07:46:14.334Z,77.76
2023-04-17T07:47:14.370Z,77.15
2023-04-17T07:48:14.307Z,77.08
2023-04-17T07:49:14.450Z,77.25
2023-04-17T07:50:14.194Z,77.45
2023-04-17T07:51:14.302Z,77.45
2023-04-17T07:52:14.128Z,77.76
2023-04-17T07:53:14.122Z,77.90
2023-04-17T07:54:14.130Z,77.25
2023-04-17T07:55:14.085Z,77.90
2023-04-17T07:56:14.105Z,78.00
2023-04-17T07:57:14.066Z,77.59
2023-04-17T07:58:14.069Z,77.90
2023-04-17T07:59:14.267Z,77.90
2023-04-17T08:00:14.100Z,78.11
2023-04-17T08:01:14.016Z,77.90
2023-04-17T08:02:14.056Z,77.49
2023-04-17T08:03:14.147Z,77.39
2023-04-17T08:04:14.215Z,77.70
2023-04-17T08:05:14.022Z,78.00
2023-04-17T08:06:13.962Z,78.20
2023-04-17T08:07:13.930Z,77.90
2023-04-17T08:08:13.915Z,78.11
2023-04-17T08:09:14.210Z,78.00
2023-04-17T08:10:13.900Z,78.00
2023-04-17T08:11:13.893Z,77.80
2023-04-17T08:12:13.883Z,77.90
2023-04-17T08:13:13.841Z,77.90
2023-04-17T08:14:13.828Z,78.31
2023-04-17T08:15:13.807Z,78.68
2023-04-17T08:16:13.841Z,78.07
2023-04-17T08:17:13.796Z,77.86
2023-04-17T08:18:13.803Z,78.17
2023-04-17T08:19:14.062Z,78.27
2023-04-17T08:20:13.746Z,78.78
2023-04-17T08:21:13.787Z,78.75
2023-04-17T08:22:13.736Z,78.54
2023-04-17T08:23:13.737Z,77.72
2023-04-17T08:24:13.743Z,77.42
2023-04-17T08:25:14.508Z,77.31
2023-04-17T08:26:13.694Z,77.42
2023-04-17T08:27:13.674Z,77.42
2023-04-17T08:28:13.650Z,77.52
2023-04-17T08:29:14.138Z,77.83
2023-04-17T08:30:16.158Z,77.52
2023-04-17T08:31:13.676Z,77.11
2023-04-17T08:32:15.024Z,76.70
2023-04-17T08:33:13.586Z,75.48
2023-04-17T08:34:15.363Z,75.17
2023-04-17T08:35:13.561Z,75.78
2023-04-17T08:36:13.560Z,75.78
2023-04-17T08:37:13.526Z,75.99
2023-04-17T08:38:13.512Z,75.48
2023-04-17T08:39:13.738Z,75.89
2023-04-17T08:40:13.508Z,76.09
2023-04-17T08:41:13.494Z,75.68
2023-04-17T08:42:17.705Z,75.89
2023-04-17T08:43:14.451Z,75.85
2023-04-17T08:44:13.437Z,75.34
2023-04-17T08:45:13.417Z,75.13
2023-04-17T08:46:13.434Z,76.26
2023-04-17T08:47:13.445Z,76.16
2023-04-17T08:48:13.376Z,76.06
2023-04-17T08:49:13.655Z,75.75
2023-04-17T08:50:13.350Z,75.54
2023-04-17T08:51:13.362Z,75.71
2023-04-17T08:52:13.358Z,75.82
2023-04-17T08:53:13.332Z,75.61
2023-04-17T08:54:13.297Z,75.41
2023-04-17T08:55:13.310Z,75.00
2023-04-17T08:56:13.300Z,75.07
2023-04-17T08:57:13.263Z,76.29
2023-04-17T08:58:13.276Z,76.80
2023-04-17T08:59:13.368Z,76.46
2023-04-17T09:00:13.217Z,76.25
2023-04-17T09:01:13.235Z,76.35
2023-04-17T09:02:13.413Z,75.34
2023-04-17T09:03:13.516Z,74.83
2023-04-17T09:04:13.403Z,74.73
2023-04-17T09:05:13.138Z,74.66
2023-04-17T09:06:13.161Z,74.66
2023-04-17T09:07:13.134Z,74.76
2023-04-17T09:08:13.132Z,74.76
2023-04-17T09:09:13.352Z,74.55
2023-04-17T09:10:13.092Z,74.05
2023-04-17T09:11:13.072Z,73.43
2023-04-17T09:12:13.122Z,73.43
2023-04-17T09:13:13.075Z,73.64
2023-04-17T09:14:13.033Z,73.94
2023-04-17T09:15:13.031Z,74.21
2023-04-17T09:16:13.171Z,73.91
2023-04-17T09:17:13.079Z,73.10
2023-04-17T09:18:13.035Z,73.16
2023-04-17T09:19:13.166Z,73.47
2023-04-17T09:20:12.977Z,73.57
2023-04-17T09:21:12.935Z,72.82
2023-04-17T09:22:12.941Z,72.01
2023-04-17T09:23:12.920Z,70.78
2023-04-17T09:24:12.903Z,69.97
2023-04-17T09:25:12.906Z,69.02
2023-04-17T09:26:12.875Z,69.84
2023-04-17T09:27:12.883Z,69.43
2023-04-17T09:28:12.852Z,68.88
2023-04-17T09:29:13.168Z,66.55
2023-04-17T09:30:12.816Z,66.55
2023-04-17T09:31:12.838Z,66.96
2023-04-17T09:32:12.809Z,68.18
2023-04-17T09:33:12.777Z,66.85
2023-04-17T09:34:12.766Z,64.92
2023-04-17T09:35:12.765Z,64.81
2023-04-17T09:36:12.746Z,64.54
2023-04-17T09:37:12.749Z,64.03
2023-04-17T09:38:12.841Z,64.17
2023-04-17T09:39:12.864Z,64.67
2023-04-17T09:40:12.690Z,64.87
2023-04-17T09:41:12.760Z,64.78
2023-04-17T09:42:12.680Z,65.49
2023-04-17T09:43:12.646Z,65.59
2023-04-17T09:44:12.849Z,66.61
2023-04-17T09:45:12.623Z,65.46
2023-04-17T09:46:12.631Z,66.07
2023-04-17T09:47:12.611Z,65.12
2023-04-17T09:48:12.591Z,64.61
2023-04-17T09:49:12.566Z,61.83
2023-04-17T09:50:12.586Z,62.75
2023-04-17T09:51:12.855Z,63.43
2023-04-17T09:52:12.557Z,62.21
2023-04-17T09:53:12.509Z,61.60
2023-04-17T09:54:12.808Z,62.41
2023-04-17T09:55:12.493Z,62.01
2023-04-17T09:56:12.462Z,62.14
2023-04-17T09:57:12.476Z,63.16
2023-04-17T09:58:12.447Z,63.26
2023-04-17T09:59:12.443Z,63.46
2023-04-17T10:00:12.426Z,63.09
2023-04-17T10:01:12.463Z,64.31
2023-04-17T10:02:12.501Z,63.19
2023-04-17T10:03:12.472Z,63.42
2023-04-17T10:04:12.804Z,63.83
2023-04-17T10:05:12.377Z,64.23
2023-04-17T10:06:12.345Z,64.23
2023-04-17T10:07:12.341Z,65.97
2023-04-17T10:08:12.300Z,65.19
2023-04-17T10:09:12.292Z,64.98
2023-04-17T10:10:12.274Z,65.49
2023-04-17T10:11:12.264Z,66.10
2023-04-17T10:12:12.275Z,66.82
2023-04-17T10:13:12.262Z,66.71
2023-04-17T10:14:12.639Z,67.86
2023-04-17T10:15:12.208Z,67.35
2023-04-17T10:16:12.209Z,67.35
2023-04-17T10:17:12.223Z,67.43
2023-04-17T10:18:12.213Z,68.13
2023-04-17T10:19:12.155Z,67.86
2023-04-17T10:20:12.148Z,68.24
2023-04-17T10:21:12.145Z,68.37
2023-04-17T10:22:12.158Z,68.17
2023-04-17T10:23:12.107Z,67.76
2023-04-17T10:24:12.321Z,67.86
2023-04-17T10:25:12.081Z,68.78
2023-04-17T10:26:12.067Z,68.44
2023-04-17T10:27:12.072Z,68.44
2023-04-17T10:28:12.046Z,68.85
2023-04-17T10:29:12.036Z,69.06
2023-04-17T10:30:12.018Z,67.32
2023-04-17T10:31:12.009Z,66.61
2023-04-17T10:32:12.086Z,66.27
2023-04-17T10:33:12.055Z,67.80
2023-04-17T10:34:12.090Z,68.21
2023-04-17T10:35:11.949Z,67.90
2023-04-17T10:36:11.932Z,67.57
2023-04-17T10:37:11.941Z,66.55
2023-04-17T10:38:11.915Z,66.55
2023-04-17T10:39:12.107Z,66.14
2023-04-17T10:40:13.471Z,66.65
2023-04-17T10:41:11.885Z,65.91
2023-04-17T10:42:11.880Z,64.58
2023-04-17T10:43:11.860Z,66.21
2023-04-17T10:44:11.825Z,65.50
2023-04-17T10:45:11.838Z,65.19
2023-04-17T10:46:11.858Z,64.99
2023-04-17T10:48:11.892Z,64.79
2023-04-17T10:49:12.038Z,64.79
2023-04-17T10:50:11.750Z,64.69
2023-04-17T10:51:11.739Z,65.70
2023-04-17T10:52:11.738Z,64.38
2023-04-17T10:53:12.971Z,64.07
2023-04-17T10:54:11.704Z,63.46
2023-04-17T10:55:11.675Z,62.45
2023-04-17T10:56:11.713Z,62.04
2023-04-17T10:57:11.656Z,61.05
2023-04-17T10:58:11.676Z,61.15
2023-04-17T10:59:12.029Z,61.25
2023-04-17T11:00:11.605Z,61.76
2023-04-17T11:01:11.676Z,62.98
2023-04-17T11:02:18.707Z,62.51
2023-04-17T11:03:11.692Z,61.79
2023-04-17T11:04:13.485Z,61.79
2023-04-17T11:05:11.549Z,61.99
2023-04-17T11:06:11.539Z,61.29
2023-04-17T11:07:11.611Z,61.69
2023-04-17T11:08:11.591Z,62.20
2023-04-17T11:09:12.056Z,61.49
2023-04-17T11:10:11.500Z,62.07
2023-04-17T11:11:11.463Z,62.07
2023-04-17T11:12:11.446Z,61.97
2023-04-17T11:13:11.451Z,62.07
2023-04-17T11:14:13.608Z,61.87
2023-04-17T11:15:11.447Z,62.27
2023-04-17T11:16:11.403Z,61.87
2023-04-17T11:17:11.441Z,61.63
2023-04-17T11:18:11.471Z,61.81
2023-04-17T11:19:11.693Z,62.21
2023-04-17T11:20:11.348Z,62.08
2023-04-17T11:21:11.345Z,59.72
2023-04-17T11:22:11.299Z,60.22
2023-04-17T11:23:11.345Z,58.94
2023-04-17T11:24:11.307Z,58.63
2023-04-17T11:25:11.279Z,58.86
2023-04-17T11:26:11.279Z,59.57
2023-04-17T11:27:11.268Z,59.98
2023-04-17T11:28:11.246Z,59.19
2023-04-17T11:29:11.690Z,58.89
2023-04-17T11:30:11.222Z,58.69
2023-04-17T11:31:11.270Z,58.78
2023-04-17T11:32:11.199Z,59.91
2023-04-17T11:33:11.197Z,59.63
2023-04-17T11:34:11.168Z,60.52
2023-04-17T11:35:11.154Z,59.60
2023-04-17T11:36:11.150Z,59.88
2023-04-17T11:37:11.122Z,59.77
2023-04-17T11:38:11.128Z,59.64
2023-04-17T11:39:11.295Z,59.54
2023-04-17T11:40:11.167Z,59.01
2023-04-17T11:41:11.084Z,58.70
2023-04-17T11:42:11.071Z,58.40
2023-04-17T11:43:11.040Z,58.20
2023-04-17T11:44:11.037Z,57.66
2023-04-17T11:45:11.018Z,56.34
2023-04-17T11:46:11.012Z,56.65
2023-04-17T11:47:10.979Z,57.64
2023-04-17T11:48:10.966Z,58.45
2023-04-17T11:49:11.175Z,58.34
2023-04-17T11:50:11.006Z,58.34
2023-04-17T11:51:10.937Z,56.82
2023-04-17T11:52:10.916Z,56.52
2023-04-17T11:53:10.906Z,57.05
2023-04-17T11:54:11.055Z,58.27
2023-04-17T11:55:10.928Z,58.37
2023-04-17T11:56:10.857Z,58.58
2023-04-17T11:57:10.869Z,56.01
2023-04-17T11:58:10.853Z,56.04
2023-04-17T11:59:11.070Z,55.83
2023-04-17T12:00:10.955Z,54.99
2023-04-17T12:01:10.805Z,54.41
2023-04-17T12:02:10.849Z,54.28
2023-04-17T12:03:10.899Z,55.30
2023-04-17T12:04:11.374Z,55.40
2023-04-17T12:05:11.032Z,55.27
2023-04-17T12:06:10.737Z,54.16
2023-04-17T12:07:10.721Z,54.66
2023-04-17T12:08:10.732Z,55.91
2023-04-17T12:09:10.997Z,57.03
2023-04-17T12:10:10.780Z,56.62
2023-04-17T12:11:10.664Z,56.01
2023-04-17T12:12:10.753Z,56.31
2023-04-17T12:13:10.721Z,56.95
2023-04-17T12:14:10.924Z,57.46
2023-04-17T12:15:10.609Z,55.63
2023-04-17T12:16:10.648Z,55.73
2023-04-17T12:17:10.566Z,54.72
2023-04-17T12:18:10.570Z,55.32
2023-04-17T12:19:10.572Z,55.43
2023-04-17T12:20:10.547Z,54.39
2023-04-17T12:21:10.520Z,54.59
2023-04-17T12:22:10.585Z,53.78
2023-04-17T12:23:10.488Z,54.18
2023-04-17T12:24:10.605Z,54.49
2023-04-17T12:25:10.470Z,53.65
2023-04-17T12:26:10.449Z,54.57
2023-04-17T12:27:10.436Z,54.44
2023-04-17T12:28:10.433Z,54.94
2023-04-17T12:29:10.420Z,54.53
2023-04-17T12:30:10.498Z,54.11
2023-04-17T12:31:10.565Z,53.83
2023-04-17T12:32:10.746Z,54.03
2023-04-17T12:33:10.369Z,54.24
2023-04-17T12:34:10.533Z,54.53
2023-04-17T12:35:10.340Z,53.42
2023-04-17T12:36:10.385Z,53.14
2023-04-17T12:37:10.299Z,54.97
2023-04-17T12:38:10.293Z,55.35
2023-04-17T12:39:10.300Z,55.35
2023-04-17T12:40:10.326Z,55.15
2023-04-17T12:41:10.246Z,53.70
2023-04-17T12:42:10.236Z,53.50
2023-04-17T12:43:10.217Z,54.00
2023-04-17T12:44:10.283Z,55.12
2023-04-17T12:45:10.227Z,53.07
2023-04-17T12:46:10.217Z,51.37
2023-04-17T12:47:10.165Z,51.65
2023-04-17T12:48:10.180Z,51.27
2023-04-17T12:49:10.304Z,51.57
2023-04-17T12:50:10.137Z,51.27
2023-04-17T12:51:10.109Z,50.68
2023-04-17T12:52:10.102Z,50.79
2023-04-17T12:53:10.095Z,51.62
2023-04-17T12:54:10.298Z,52.03
2023-04-17T12:55:10.065Z,51.85
2023-04-17T12:56:10.074Z,52.36
2023-04-17T12:57:10.034Z,52.86
2023-04-17T12:58:10.073Z,52.89
2023-04-17T12:59:10.007Z,53.19
2023-04-17T13:00:10.030Z,52.76
2023-04-17T13:01:10.043Z,54.08
2023-04-17T13:02:10.082Z,54.49
2023-04-17T13:03:10.114Z,53.55
2023-04-17T13:04:10.066Z,55.45